createdAt,value
2019-03-06T00:00:17.649Z,57.50
2019-03-06T00:02:43.937Z,57.60
2019-03-06T00:05:10.203Z,57.50
2019-03-06T00:07:36.436Z,57.70
2019-03-06T00:10:42.256Z,57.60
2019-03-06T00:13:08.420Z,57.50
2019-03-06T00:15:34.560Z,57.40
2019-03-06T00:18:00.844Z,57.70
2019-03-06T00:20:26.990Z,57.60
2019-03-06T00:22:53.171Z,57.70
2019-03-06T00:25:19.326Z,57.70
2019-03-06T00:27:45.523Z,57.70
2019-03-06T00:30:14.585Z,57.70
2019-03-06T00:32:41.449Z,57.80
2019-03-06T00:35:11.699Z,57.40
2019-03-06T00:37:37.880Z,57.90
2019-03-06T00:40:22.805Z,57.90
2019-03-06T00:42:49.940Z,57.90
2019-03-06T00:45:16.098Z,57.80
2019-03-06T00:47:42.395Z,57.80
2019-03-06T00:50:08.609Z,57.80
2019-03-06T00:52:34.878Z,57.90
2019-03-06T00:55:01.413Z,57.80
2019-03-06T00:57:27.863Z,57.90
2019-03-06T00:59:54.061Z,57.90
2019-03-06T01:02:20.295Z,57.80
2019-03-06T01:04:46.470Z,57.70
2019-03-06T01:07:12.608Z,57.80
2019-03-06T01:09:38.812Z,57.70
2019-03-06T01:12:05.053Z,57.80
2019-03-06T01:14:31.230Z,57.90
2019-03-06T01:16:57.412Z,57.30
2019-03-06T01:19:23.846Z,57.80
2019-03-06T01:21:49.986Z,58.00
2019-03-06T01:24:16.503Z,57.90
2019-03-06T01:27:02.541Z,58.00
2019-03-06T01:29:28.734Z,57.90
2019-03-06T01:31:54.858Z,58.00
2019-03-06T01:34:31.724Z,57.90
2019-03-06T01:37:00.061Z,57.90
2019-03-06T01:39:31.376Z,58.00
2019-03-06T01:42:02.419Z,57.90
2019-03-06T01:44:30.514Z,57.90
2019-03-06T01:46:56.669Z,58.00
2019-03-06T01:49:23.168Z,57.80
2019-03-06T01:51:49.330Z,57.90
2019-03-06T01:54:15.524Z,57.90
2019-03-06T01:56:41.676Z,57.90
2019-03-06T01:59:07.857Z,57.90
2019-03-06T02:01:34.095Z,58.00
2019-03-06T02:04:01.103Z,57.90
2019-03-06T02:06:27.623Z,57.90
2019-03-06T02:08:54.794Z,57.90
2019-03-06T02:11:21.286Z,57.80
2019-03-06T02:13:47.570Z,57.90
2019-03-06T02:16:13.991Z,57.90
2019-03-06T02:18:40.383Z,58.00
2019-03-06T02:21:06.647Z,58.00
2019-03-06T02:23:32.824Z,58.10
2019-03-06T02:25:59.110Z,58.10
2019-03-06T02:28:25.341Z,58.20
2019-03-06T02:30:51.497Z,58.20
2019-03-06T02:33:18.362Z,58.30
2019-03-06T02:35:44.527Z,58.20
2019-03-06T02:38:11.051Z,58.30
2019-03-06T02:40:37.684Z,58.30
2019-03-06T02:43:03.853Z,58.40
2019-03-06T02:45:30.347Z,58.90
2019-03-06T02:48:16.382Z,58.30
2019-03-06T02:51:20.535Z,58.30
2019-03-06T02:53:47.285Z,58.20
2019-03-06T02:56:13.495Z,58.10
2019-03-06T02:58:41.537Z,58.80
2019-03-06T03:01:09.612Z,58.30
2019-03-06T03:03:37.666Z,58.30
2019-03-06T03:06:14.627Z,58.30
2019-03-06T03:08:40.777Z,58.40
2019-03-06T03:11:06.994Z,57.80
2019-03-06T03:13:33.444Z,58.50
2019-03-06T03:15:59.613Z,58.00
2019-03-06T03:18:25.753Z,58.60
2019-03-06T03:20:52.329Z,58.70
2019-03-06T03:23:18.524Z,58.70
2019-03-06T03:25:44.867Z,58.80
2019-03-06T03:28:11.384Z,59.40
2019-03-06T03:30:37.686Z,58.90
2019-03-06T03:33:04.145Z,58.90
2019-03-06T03:35:30.317Z,58.90
2019-03-06T03:37:56.570Z,58.90
2019-03-06T03:40:22.749Z,58.90
2019-03-06T03:42:48.880Z,58.90
2019-03-06T03:45:15.563Z,59.00
2019-03-06T03:47:41.721Z,59.10
2019-03-06T03:50:09.672Z,59.10
2019-03-06T03:52:35.911Z,59.10
2019-03-06T03:55:08.813Z,59.10
2019-03-06T03:57:34.972Z,59.10
2019-03-06T04:00:01.180Z,59.10
2019-03-06T04:02:27.354Z,59.20
2019-03-06T04:04:53.780Z,59.10
2019-03-06T04:07:20.228Z,59.70
2019-03-06T04:09:46.391Z,59.10
2019-03-06T04:12:12.559Z,59.70
2019-03-06T04:14:38.702Z,59.10
2019-03-06T04:17:04.877Z,59.10
2019-03-06T04:19:31.009Z,59.10
2019-03-06T04:21:57.189Z,59.10
2019-03-06T04:24:23.652Z,59.10
2019-03-06T04:26:49.861Z,59.10
2019-03-06T04:29:16.026Z,59.10
2019-03-06T04:31:42.566Z,58.90
2019-03-06T04:34:08.720Z,59.30
2019-03-06T04:36:34.955Z,59.20
2019-03-06T04:39:01.078Z,58.90
2019-03-06T04:41:27.304Z,58.80
2019-03-06T04:43:53.783Z,58.80
2019-03-06T04:46:19.959Z,58.70
2019-03-06T04:48:46.412Z,58.70
2019-03-06T04:51:13.210Z,58.80
2019-03-06T04:53:39.422Z,58.80
2019-03-06T04:56:05.703Z,58.90
2019-03-06T04:58:31.862Z,58.80
2019-03-06T05:00:58.038Z,58.80
2019-03-06T05:03:24.500Z,58.80
2019-03-06T05:05:50.698Z,58.80
2019-03-06T05:08:16.833Z,58.90
2019-03-06T05:10:43.423Z,59.00
2019-03-06T05:13:09.567Z,59.10
2019-03-06T05:15:36.144Z,59.00
2019-03-06T05:18:16.390Z,59.00
2019-03-06T05:20:42.560Z,59.00
2019-03-06T05:23:08.693Z,58.90
2019-03-06T05:25:36.157Z,59.10
2019-03-06T05:28:02.454Z,59.20
2019-03-06T05:30:29.839Z,59.30
2019-03-06T05:33:01.703Z,59.40
2019-03-06T05:35:48.712Z,59.40
2019-03-06T05:38:23.209Z,59.50
2019-03-06T05:40:49.672Z,59.50
2019-03-06T05:43:15.918Z,59.60
2019-03-06T05:45:42.383Z,59.50
2019-03-06T05:48:08.548Z,59.50
2019-03-06T05:50:34.746Z,60.10
2019-03-06T05:53:01.040Z,59.50
2019-03-06T05:55:27.243Z,59.60
2019-03-06T05:57:53.410Z,59.70
2019-03-06T06:00:24.189Z,59.70
2019-03-06T06:02:50.306Z,59.80
2019-03-06T06:05:16.512Z,59.90
2019-03-06T06:07:42.667Z,60.10
2019-03-06T06:10:11.757Z,60.20
2019-03-06T06:12:37.989Z,60.30
2019-03-06T06:15:10.534Z,60.30
2019-03-06T06:17:36.683Z,60.40
2019-03-06T06:20:07.185Z,60.30
2019-03-06T06:22:38.548Z,60.50
2019-03-06T06:25:05.059Z,60.80
2019-03-06T06:27:31.196Z,61.30
2019-03-06T06:29:57.373Z,62.20
2019-03-06T06:32:23.512Z,61.40
2019-03-06T06:34:49.942Z,61.80
2019-03-06T06:37:16.086Z,62.20
2019-03-06T06:39:42.257Z,62.60
2019-03-06T06:42:08.628Z,62.60
2019-03-06T06:44:34.837Z,62.40
2019-03-06T06:47:01.309Z,61.90
2019-03-06T06:49:27.469Z,61.40
2019-03-06T06:52:04.849Z,60.80
2019-03-06T06:54:42.971Z,60.30
2019-03-06T06:57:47.462Z,59.90
2019-03-06T07:00:26.730Z,59.90
2019-03-06T07:03:07.966Z,60.40
2019-03-06T07:05:36.144Z,60.30
2019-03-06T07:08:04.390Z,60.00
2019-03-06T07:10:44.498Z,59.70
2019-03-06T07:13:29.338Z,59.50
2019-03-06T07:16:03.869Z,59.50
2019-03-06T07:18:35.008Z,59.50
2019-03-06T07:21:05.740Z,58.80
2019-03-06T07:23:49.014Z,57.90
2019-03-06T07:26:33.908Z,57.00
2019-03-06T07:29:04.485Z,56.70
2019-03-06T07:31:38.521Z,55.50
2019-03-06T07:34:06.574Z,54.70
2019-03-06T07:36:43.399Z,54.30
2019-03-06T07:39:11.866Z,54.30
2019-03-06T07:41:42.572Z,54.70
2019-03-06T07:44:30.440Z,54.70
2019-03-06T07:47:00.029Z,54.30
2019-03-06T07:49:45.527Z,53.50
2019-03-06T07:52:15.515Z,53.00
2019-03-06T07:54:43.802Z,52.30
2019-03-06T07:57:11.901Z,51.50
2019-03-06T07:59:38.039Z,50.20
2019-03-06T08:02:15.728Z,48.70
2019-03-06T08:04:51.291Z,47.20
2019-03-06T08:07:17.450Z,45.60
2019-03-06T08:09:43.614Z,44.00
2019-03-06T08:12:20.917Z,42.70
2019-03-06T08:15:05.927Z,41.70
2019-03-06T08:17:52.382Z,41.50
2019-03-06T08:20:29.154Z,41.10
2019-03-06T08:23:00.118Z,40.70
2019-03-06T08:25:28.437Z,40.70
2019-03-06T08:27:54.621Z,40.80
2019-03-06T08:30:22.073Z,41.10
2019-03-06T08:32:48.254Z,41.30
2019-03-06T08:35:14.382Z,41.00
2019-03-06T08:37:40.565Z,40.70
2019-03-06T08:40:09.508Z,40.30
2019-03-06T08:42:35.706Z,40.20
2019-03-06T08:45:05.877Z,39.90
2019-03-06T08:47:33.963Z,39.60
2019-03-06T08:50:04.972Z,39.40
2019-03-06T08:52:33.445Z,39.70
2019-03-06T08:55:11.140Z,39.40
2019-03-06T08:57:39.323Z,38.80
2019-03-06T09:00:12.786Z,38.50
2019-03-06T09:02:49.918Z,38.00
2019-03-06T09:05:24.124Z,38.00
2019-03-06T09:07:54.919Z,37.40
2019-03-06T09:10:41.461Z,37.10
2019-03-06T09:13:15.544Z,36.80
2019-03-06T09:15:55.921Z,36.80
2019-03-06T09:18:23.971Z,37.00
2019-03-06T09:20:54.702Z,37.20
2019-03-06T09:23:39.615Z,37.40
2019-03-06T09:26:07.702Z,37.40
2019-03-06T09:28:42.247Z,37.90
2019-03-06T09:31:33.011Z,38.80
2019-03-06T09:34:04.052Z,49.40
2019-03-06T09:36:49.149Z,45.10
2019-03-06T09:39:53.578Z,35.60
2019-03-06T09:42:21.631Z,35.90
2019-03-06T09:45:06.186Z,38.70
2019-03-06T09:47:40.170Z,35.80
2019-03-06T09:50:16.798Z,35.90
2019-03-06T09:53:01.457Z,35.20
2019-03-06T09:55:46.081Z,34.30
2019-03-06T09:58:16.832Z,34.00
2019-03-06T10:01:01.624Z,34.00
2019-03-06T10:03:35.968Z,33.90
2019-03-06T10:06:04.043Z,33.20
2019-03-06T10:08:44.348Z,32.90
2019-03-06T10:11:27.789Z,32.50
2019-03-06T10:14:01.561Z,32.00
2019-03-06T10:16:29.737Z,31.20
2019-03-06T10:19:03.411Z,31.60
2019-03-06T10:21:29.567Z,31.40
2019-03-06T10:23:55.745Z,31.20
2019-03-06T10:26:22.355Z,30.80
2019-03-06T10:28:48.789Z,30.40
2019-03-06T10:31:15.373Z,30.10
2019-03-06T10:33:42.010Z,30.10
2019-03-06T10:36:08.458Z,30.00
2019-03-06T10:38:34.622Z,29.80
2019-03-06T10:41:00.888Z,29.20
2019-03-06T10:43:27.044Z,29.00
2019-03-06T10:45:53.217Z,29.00
2019-03-06T10:48:19.364Z,28.10
2019-03-06T10:50:45.561Z,28.10
2019-03-06T10:53:11.816Z,27.80
2019-03-06T10:55:37.984Z,27.90
2019-03-06T10:58:04.226Z,28.10
2019-03-06T11:00:35.547Z,27.60
2019-03-06T11:03:01.788Z,27.80
2019-03-06T11:05:29.962Z,27.90
2019-03-06T11:07:58.527Z,27.90
2019-03-06T11:10:25.806Z,28.00
2019-03-06T11:12:54.155Z,27.90
2019-03-06T11:15:21.123Z,27.50
2019-03-06T11:17:48.083Z,27.80
2019-03-06T11:20:33.679Z,28.00
2019-03-06T11:23:05.054Z,28.10
2019-03-06T11:25:32.133Z,28.20
2019-03-06T11:27:58.390Z,28.40
2019-03-06T11:30:38.815Z,28.20
2019-03-06T11:33:07.751Z,28.20
2019-03-06T11:35:35.940Z,27.90
2019-03-06T11:38:03.339Z,28.70
2019-03-06T11:40:29.769Z,28.90
2019-03-06T11:42:55.912Z,28.90
2019-03-06T11:45:22.306Z,29.00
2019-03-06T11:47:48.454Z,29.00
2019-03-06T11:50:16.244Z,28.70
2019-03-06T11:52:42.402Z,28.70
2019-03-06T11:55:11.866Z,28.90
2019-03-06T11:57:38.108Z,29.20
2019-03-06T12:00:35.465Z,29.30
2019-03-06T12:03:02.108Z,29.70
2019-03-06T12:05:28.964Z,30.00
2019-03-06T12:07:55.128Z,30.40
2019-03-06T12:10:22.108Z,30.40
2019-03-06T12:12:48.265Z,30.70
2019-03-06T12:15:15.441Z,31.00
2019-03-06T12:17:41.882Z,31.40
2019-03-06T12:20:08.621Z,31.90
2019-03-06T12:22:35.167Z,32.30
2019-03-06T12:25:01.416Z,32.30
2019-03-06T12:27:27.584Z,32.30
2019-03-06T12:29:54.757Z,32.50
2019-03-06T12:32:20.909Z,32.50
2019-03-06T12:34:47.044Z,32.60
2019-03-06T12:37:13.244Z,32.70
2019-03-06T12:39:39.629Z,32.60
2019-03-06T12:42:13.909Z,32.60
2019-03-06T12:44:34.241Z,32.60
2019-03-06T12:47:00.421Z,32.50
2019-03-06T12:49:26.580Z,32.50
2019-03-06T12:51:54.630Z,32.60
2019-03-06T12:54:20.830Z,32.90
2019-03-06T12:56:46.991Z,33.30
2019-03-06T12:59:13.133Z,33.30
2019-03-06T13:01:39.535Z,33.30
2019-03-06T13:04:05.676Z,33.50
2019-03-06T13:06:31.878Z,33.60
2019-03-06T13:08:58.714Z,33.70
2019-03-06T13:11:24.981Z,33.80
2019-03-06T13:13:51.129Z,33.80
2019-03-06T13:16:17.539Z,33.90
2019-03-06T13:19:03.573Z,33.90
2019-03-06T13:21:29.756Z,33.70
2019-03-06T13:23:55.904Z,33.70
2019-03-06T13:26:22.097Z,33.60
2019-03-06T13:28:56.921Z,33.60
2019-03-06T13:31:16.334Z,33.50
2019-03-06T13:33:44.480Z,33.50
2019-03-06T13:36:12.356Z,33.30
2019-03-06T13:38:41.246Z,33.10
2019-03-06T13:41:07.426Z,33.20
2019-03-06T13:43:33.597Z,33.00
2019-03-06T13:45:59.848Z,32.90
2019-03-06T13:48:26.012Z,32.70
2019-03-06T13:50:52.161Z,32.70
2019-03-06T13:53:20.553Z,32.50
2019-03-06T13:55:46.760Z,32.40
2019-03-06T13:58:12.945Z,32.40
2019-03-06T14:00:39.117Z,32.20
2019-03-06T14:03:05.587Z,32.10
2019-03-06T14:05:32.127Z,32.00
2019-03-06T14:07:58.574Z,32.70
2019-03-06T14:10:25.228Z,32.10
2019-03-06T14:12:52.068Z,32.60
2019-03-06T14:15:19.552Z,32.60
2019-03-06T14:17:45.822Z,32.70
2019-03-06T14:20:15.987Z,32.90
2019-03-06T14:22:45.470Z,33.00
2019-03-06T14:25:13.026Z,32.60
2019-03-06T14:27:39.502Z,33.00
2019-03-06T14:30:19.909Z,33.20
2019-03-06T14:32:46.207Z,33.30
2019-03-06T14:35:12.348Z,33.30
2019-03-06T14:37:39.026Z,33.50
2019-03-06T14:40:19.463Z,33.60
2019-03-06T14:42:45.639Z,33.70
2019-03-06T14:45:13.094Z,33.90
2019-03-06T14:47:39.271Z,34.00
2019-03-06T14:50:07.023Z,33.90
2019-03-06T14:52:33.274Z,34.00
2019-03-06T14:54:59.696Z,34.10
2019-03-06T14:57:25.888Z,34.20
2019-03-06T14:59:52.164Z,34.10
2019-03-06T15:02:18.330Z,34.20
2019-03-06T15:04:44.496Z,34.20
2019-03-06T15:07:10.922Z,34.40
2019-03-06T15:09:37.229Z,34.30
2019-03-06T15:12:03.372Z,34.30
2019-03-06T15:14:36.083Z,34.50
2019-03-06T15:16:57.610Z,34.40
2019-03-06T15:19:23.854Z,34.50
2019-03-06T15:21:50.808Z,34.50
2019-03-06T15:24:16.990Z,34.50
2019-03-06T15:26:43.271Z,34.60
2019-03-06T15:29:09.551Z,34.80
2019-03-06T15:31:35.855Z,34.80
2019-03-06T15:34:02.110Z,34.80
2019-03-06T15:36:28.766Z,34.90
2019-03-06T15:38:54.968Z,34.80
2019-03-06T15:41:21.127Z,34.80
2019-03-06T15:43:47.353Z,34.80
2019-03-06T15:46:13.495Z,34.70
2019-03-06T15:48:39.690Z,34.60
2019-03-06T15:51:05.841Z,34.60
2019-03-06T15:53:32.017Z,34.50
2019-03-06T15:55:58.453Z,34.60
2019-03-06T15:58:24.610Z,34.60
2019-03-06T16:00:50.745Z,34.60
2019-03-06T16:03:17.092Z,34.70
2019-03-06T16:05:43.445Z,34.70
2019-03-06T16:08:11.929Z,34.70
2019-03-06T16:10:39.272Z,34.70
2019-03-06T16:13:05.843Z,34.70
2019-03-06T16:15:32.119Z,34.70
2019-03-06T16:18:01.614Z,34.80
2019-03-06T16:20:27.797Z,34.90
2019-03-06T16:22:54.001Z,34.50
2019-03-06T16:25:20.724Z,34.90
2019-03-06T16:27:46.904Z,34.90
2019-03-06T16:30:16.561Z,34.90
2019-03-06T16:32:42.984Z,35.00
2019-03-06T16:35:09.625Z,35.10
2019-03-06T16:37:35.839Z,35.20
2019-03-06T16:40:09.779Z,35.20
2019-03-06T16:42:35.960Z,35.30
2019-03-06T16:45:05.445Z,35.40
2019-03-06T16:47:31.660Z,35.60
2019-03-06T16:49:57.805Z,35.60
2019-03-06T16:52:23.986Z,35.70
2019-03-06T16:54:50.226Z,35.80
2019-03-06T16:57:16.418Z,35.80
2019-03-06T16:59:42.879Z,35.90
2019-03-06T17:02:09.818Z,36.00
2019-03-06T17:04:36.949Z,36.10
2019-03-06T17:07:03.444Z,36.20
2019-03-06T17:11:55.687Z,36.30
2019-03-06T17:14:23.038Z,36.40
2019-03-06T17:16:49.177Z,36.50
2019-03-06T17:19:15.637Z,36.60
2019-03-06T17:21:42.175Z,36.70
2019-03-06T17:24:08.779Z,36.70
2019-03-06T17:26:35.323Z,36.80
2019-03-06T17:29:08.821Z,36.80
2019-03-06T17:31:35.262Z,36.40
2019-03-06T17:34:01.469Z,37.00
2019-03-06T17:36:27.620Z,37.10
2019-03-06T17:38:53.809Z,37.10
2019-03-06T17:41:20.421Z,37.20
2019-03-06T17:43:46.855Z,37.20
2019-03-06T17:46:13.188Z,37.30
2019-03-06T17:48:39.448Z,37.40
2019-03-06T17:51:05.862Z,37.50
2019-03-06T17:53:32.138Z,37.50
2019-03-06T17:55:58.543Z,38.10
2019-03-06T17:58:24.803Z,37.70
2019-03-06T18:00:55.523Z,37.80
2019-03-06T18:03:23.612Z,37.80
2019-03-06T18:05:49.756Z,37.90
2019-03-06T18:08:16.014Z,37.90
2019-03-06T18:10:42.683Z,38.00
2019-03-06T18:13:09.103Z,38.20
2019-03-06T18:15:35.285Z,38.30
2019-03-06T18:18:01.413Z,38.40
2019-03-06T18:20:27.937Z,38.60
2019-03-06T18:22:55.262Z,38.70
2019-03-06T18:25:23.699Z,38.80
2019-03-06T18:27:49.839Z,38.90
2019-03-06T18:30:18.910Z,39.10
2019-03-06T18:32:46.110Z,39.10
2019-03-06T18:35:17.237Z,39.20
2019-03-06T18:37:43.794Z,39.30
2019-03-06T18:40:24.546Z,39.40
2019-03-06T18:42:50.795Z,39.40
2019-03-06T18:45:18.977Z,39.50
2019-03-06T18:47:45.225Z,39.50
2019-03-06T18:50:17.480Z,39.60
2019-03-06T18:52:44.291Z,39.70
2019-03-06T18:55:13.487Z,39.80
2019-03-06T18:57:40.506Z,39.80
2019-03-06T19:00:21.472Z,40.00
2019-03-06T19:02:47.723Z,40.10
2019-03-06T19:05:15.829Z,40.10
2019-03-06T19:07:42.061Z,40.30
2019-03-06T19:10:12.640Z,40.40
2019-03-06T19:12:39.141Z,40.50
2019-03-06T19:15:16.343Z,40.60
2019-03-06T19:17:42.652Z,40.90
2019-03-06T19:20:09.959Z,41.00
2019-03-06T19:22:36.423Z,41.10
2019-03-06T19:25:06.662Z,41.20
2019-03-06T19:27:32.965Z,41.40
2019-03-06T19:29:59.468Z,41.40
2019-03-06T19:32:25.903Z,41.60
2019-03-06T19:34:52.108Z,41.80
2019-03-06T19:37:18.282Z,41.90
2019-03-06T19:39:44.478Z,42.00
2019-03-06T19:42:10.639Z,42.00
2019-03-06T19:44:36.820Z,42.10
2019-03-06T19:47:03.061Z,42.20
2019-03-06T19:49:29.548Z,42.30
2019-03-06T19:51:55.898Z,42.40
2019-03-06T19:54:22.069Z,42.50
2019-03-06T19:56:48.237Z,42.60
2019-03-06T19:59:14.410Z,42.70
2019-03-06T20:01:40.604Z,42.70
2019-03-06T20:04:06.760Z,42.70
2019-03-06T20:06:33.044Z,42.70
2019-03-06T20:08:59.190Z,42.80
2019-03-06T20:11:25.987Z,42.80
2019-03-06T20:13:52.131Z,42.80
2019-03-06T20:16:18.324Z,42.90
2019-03-06T20:18:44.745Z,42.90
2019-03-06T20:21:11.213Z,42.90
2019-03-06T20:23:37.406Z,42.90
2019-03-06T20:26:03.611Z,42.90
2019-03-06T20:28:29.754Z,42.90
2019-03-06T20:30:55.950Z,43.00
2019-03-06T20:33:22.282Z,42.90
2019-03-06T20:35:48.460Z,42.90
2019-03-06T20:38:14.625Z,42.90
2019-03-06T20:43:26.113Z,43.00
2019-03-06T20:45:52.622Z,43.50
2019-03-06T20:48:19.059Z,42.90
2019-03-06T20:50:45.604Z,43.00
2019-03-06T20:53:12.041Z,43.00
2019-03-06T20:55:38.207Z,43.00
2019-03-06T20:58:04.708Z,43.00
2019-03-06T21:00:31.113Z,43.00
2019-03-06T21:02:57.339Z,43.10
2019-03-06T21:05:23.848Z,43.00
2019-03-06T21:07:50.385Z,43.00
2019-03-06T21:10:18.139Z,43.00
2019-03-06T21:12:45.017Z,43.00
2019-03-06T21:15:15.000Z,43.50
2019-03-06T21:17:41.651Z,42.90
2019-03-06T21:20:12.166Z,42.90
2019-03-06T21:22:38.571Z,43.00
2019-03-06T21:25:08.934Z,42.90
2019-03-06T21:27:35.339Z,42.90
2019-03-06T21:30:04.966Z,42.90
2019-03-06T21:32:31.718Z,42.90
2019-03-06T21:34:58.863Z,42.90
2019-03-06T21:37:25.097Z,42.90
2019-03-06T21:39:51.263Z,42.90
2019-03-06T21:42:17.460Z,42.90
2019-03-06T21:44:43.924Z,42.90
2019-03-06T21:47:10.206Z,42.90
2019-03-06T21:49:36.449Z,42.90
2019-03-06T21:52:02.819Z,42.90
2019-03-06T21:54:29.034Z,42.90
2019-03-06T21:56:55.203Z,43.50
2019-03-06T21:59:21.363Z,42.90
2019-03-06T22:01:47.702Z,42.90
2019-03-06T22:04:13.853Z,43.00
2019-03-06T22:06:40.037Z,43.00
2019-03-06T22:09:10.598Z,43.10
2019-03-06T22:11:36.774Z,43.10
2019-03-06T22:14:03.027Z,43.20
2019-03-06T22:16:29.289Z,43.20
2019-03-06T22:18:55.449Z,43.30
2019-03-06T22:21:21.669Z,43.40
2019-03-06T22:23:47.806Z,43.30
2019-03-06T22:26:13.997Z,43.40
2019-03-06T22:28:40.559Z,43.40
2019-03-06T22:31:06.731Z,43.40
2019-03-06T22:33:32.893Z,43.50
2019-03-06T22:35:59.474Z,43.50
2019-03-06T22:38:25.629Z,43.50
2019-03-06T22:40:51.785Z,43.60
2019-03-06T22:43:17.963Z,43.60
2019-03-06T22:45:44.212Z,43.60
2019-03-06T22:48:10.441Z,43.70
2019-03-06T22:50:36.632Z,44.30
2019-03-06T22:53:02.807Z,43.80
2019-03-06T22:55:28.973Z,43.90
2019-03-06T22:57:55.236Z,44.00
2019-03-06T23:00:43.834Z,44.00
2019-03-06T23:03:10.419Z,44.00
2019-03-06T23:05:36.984Z,44.00
2019-03-06T23:08:03.264Z,44.00
2019-03-06T23:10:29.414Z,44.00
2019-03-06T23:12:55.799Z,44.10
2019-03-06T23:15:21.948Z,44.10
2019-03-06T23:17:48.126Z,43.80
2019-03-06T23:20:14.561Z,44.10
2019-03-06T23:22:40.770Z,44.10
2019-03-06T23:25:06.997Z,44.10
2019-03-06T23:27:33.165Z,44.10
2019-03-06T23:29:59.348Z,44.20
2019-03-06T23:32:32.074Z,44.20
2019-03-06T23:34:58.248Z,44.40
2019-03-06T23:37:24.383Z,44.20
2019-03-06T23:39:50.656Z,44.20
2019-03-06T23:42:17.355Z,44.20
2019-03-06T23:44:43.519Z,44.20
2019-03-06T23:47:09.691Z,44.20
2019-03-06T23:49:37.050Z,44.30
2019-03-06T23:52:05.126Z,44.30
2019-03-06T23:54:31.575Z,44.40
2019-03-06T23:56:58.363Z,45.00
2019-03-06T23:59:24.531Z,44.40
